• location
  • image
mod_vvisit_countermod_vvisit_countermod_vvisit_countermod_vvisit_countermod_vvisit_countermod_vvisit_countermod_vvisit_counter
mod_vvisit_counterToday348
mod_vvisit_counterYesterday874
mod_vvisit_counterThis week5014
mod_vvisit_counterLast week5522
mod_vvisit_counterThis month15499
mod_vvisit_counterLast month23031
mod_vvisit_counterAll days1001456

We have: 31 guests online
Your IP: 54.92.160.119
 , 
Today: Oct 21, 2018
Airport / Information for passengers / VIP lounge

VIP lounge

 

15 vip pic en r

Today

Sunday, 21 October 2018

Aviation Weather Forecast

[source: ADDS]
METAR
EYSA 210750Z 25004KT 1000 0450NW R32R/P2000D FG BKN001 05/05 Q1026 RED TEMPO OVC002 AMB =
TAF EYSA 210511Z 2106/2115 VRB04KT 0400 FG VV002 TEMPO 2106/2108 1500 BR BKN003 BECMG 2108/2110 6000 SCT010 BKN020
TAF
TAF EYSA 210511Z 2106/2115 VRB04KT 0400 FG VV002 TEMPO 2106/2108 1500 BR BKN003 BECMG 2108/2110 6000 SCT010 BKN020 =
SR / SS: 05:10 / 15:15 UTC (EYSA 2018-10-21)

Search

Who's Online

We have 31 guests online

tic logo en